This is the latest recevied weather packets stored in our database for station/object OK1TRJ-5. If no packets are shown the sender has not sent any weather packets the latest 10 day(s).
| Time | Temp. | Humidity | Pressure | Rain* | Wind** | Luminosity | Snow |
|---|---|---|---|---|---|---|---|
| 1778260502 | 15° C | 66% | 1014 hPa | 0 mm | - | - | - |
| 1778259603 | 15° C | 65% | 1014 hPa | 0 mm | - | - | - |
| 1778258702 | 15.56° C | 62% | 1014 hPa | 0 mm | - | - | - |
| 1778257803 | 15.56° C | 62% | 1014 hPa | 0 mm | - | - | - |
| 1778256902 | 16.11° C | 57% | 1014 hPa | 0 mm | - | - | - |
| 1778256003 | 16.67° C | 54% | 1014 hPa | 0 mm | - | - | - |
| 1778255102 | 16.11° C | 56% | 1014 hPa | 0 mm | - | - | - |
| 1778254202 | 16.67° C | 54% | 1014 hPa | 0 mm | - | - | - |
| 1778253302 | 17.22° C | 52% | 1014 hPa | 0 mm | - | - | - |
| 1778252402 | 16.67° C | 54% | 1014 hPa | 0 mm | - | - | - |
| 1778251502 | 17.22° C | 52% | 1015 hPa | 0 mm | - | - | - |
| 1778250602 | 17.78° C | 51% | 1015 hPa | 0 mm | - | - | - |
| 1778249702 | 16.67° C | 54% | 1015 hPa | 0 mm | - | - | - |
| 1778248802 | 16.67° C | 52% | 1015 hPa | 0 mm | - | - | - |
| 1778247902 | 17.22° C | 51% | 1015 hPa | 0 mm | - | - | - |
| 1778247004 | 16.67° C | 53% | 1015 hPa | 0 mm | - | - | - |
| 1778246103 | 18.33° C | 48% | 1015 hPa | 0 mm | - | - | - |
| 1778245203 | 16.11° C | 56% | 1015 hPa | 0 mm | - | - | - |
| 1778244302 | 15° C | 60% | 1015 hPa | 0 mm | - | - | - |
| 1778243403 | 16.11° C | 57% | 1015 hPa | 0 mm | - | - | - |
| 1778242502 | 16.11° C | 54% | 1015 hPa | 0 mm | - | - | - |
| 1778241603 | 14.44° C | 62% | 1015 hPa | 0 mm | - | - | - |
| 1778240702 | 15° C | 61% | 1015 hPa | 0 mm | - | - | - |
| 1778239802 | 14.44° C | 63% | 1015 hPa | 0 mm | - | - | - |
| 1778238902 | 13.89° C | 66% | 1015 hPa | 0 mm | - | - | - |
* Rain latest hour (hover to see other rain measurements)
** Current wind speed in m/s (hover to see current wind gust speed)